Four Lakes, WA (99014)

11:55 PM PDT on September 24, 2016 (GMT -0700)
Craig Rd / White Rd | | Change Station

Elev 2405 ft 47.58 °N, 117.62 °W | Updated 7 seconds ago

Mostly Cloudy
Mostly Cloudy
54.3 °F
Feels Like 54.3 °F
N
0.0
Wind Variable Wind from SE
Gusts 0.0 mph

Today
High -- | Low -- °F
--% Chance of Precip.
Yesterday
High -- | Low -- °F
Precip. -- in
Pressure 30.37 in
Visibility 10.0 miles
Clouds Mostly Cloudy 15000 ft
Dew Point 40 °F
Humidity 59%
Rainfall 0.00 in
Snow Depth Not available.
6:40 AM 6:42 PM
Waning Crescent, 30% visible
METAR KGEG 250653Z 17005KT 10SM BKN150 12/02 A3037 RMK AO2 SLP282 T01220017 $
Pressure 30.37 in
Visibility 10.0 miles
Clouds Mostly Cloudy 15000 ft
Dew Point 40 °F
Humidity 59%
Rainfall 0.00 in
Snow Depth Not available.
6:40 AM 6:42 PM
Waning Crescent, 30% visible
METAR KGEG 250653Z 17005KT 10SM BKN150 12/02 A3037 RMK AO2 SLP282 T01220017 $

10-Day Weather Forecast

Almanac

Astronomy

Sep. 24, 2016 Rise Set
Actual Time
Civil Twilight
Nautical Twilight
Astronomical Twilight
Moon
Length of Visible Light
Length of Day
Tomorrow will be .
, % of the Moon is Illuminated

Today's Extremes

State Highs State Lows

Community

WunderPhotos

Upload Photos

1,941,554 photos uploaded!

WunderBlog® & News

Nearby

Air Quality

  Air Quality AQ Index Pollutant
Not available.

Snow Depth

Station Depth Elevation

Earthquake Activity

City Distance Mag. Time & Date
Minimum magnitude displayed is 2.5.

Coastal Water Temperatures

Place Temperature

Stations

Nearby Weather Stations

Station Location Temp. Windchill Dew Point Humidity Wind Precip. Elev Updated Type
                   

Watches & Warnings

There are currently no watches in effect.